sensor_id;sensor_type;location;lat;lon;timestamp;P1;durP1;ratioP1;P2;durP2;ratioP2
21239;SDS011;10778;48.962;9.018;2023-03-01T00:02:13;21.65;;;12.50;;
21239;SDS011;10778;48.962;9.018;2023-03-01T00:04:39;22.27;;;12.27;;
21239;SDS011;10778;48.962;9.018;2023-03-01T00:07:05;22.55;;;13.10;;
21239;SDS011;10778;48.962;9.018;2023-03-01T00:09:31;20.35;;;12.57;;
21239;SDS011;10778;48.962;9.018;2023-03-01T00:11:57;22.73;;;12.88;;
21239;SDS011;10778;48.962;9.018;2023-03-01T00:14:24;21.13;;;12.50;;
21239;SDS011;10778;48.962;9.018;2023-03-01T00:16:50;30.88;;;16.48;;
21239;SDS011;10778;48.962;9.018;2023-03-01T00:19:17;27.00;;;15.05;;
21239;SDS011;10778;48.962;9.018;2023-03-01T00:21:44;29.65;;;15.80;;
21239;SDS011;10778;48.962;9.018;2023-03-01T00:24:10;30.08;;;15.15;;
21239;SDS011;10778;48.962;9.018;2023-03-01T00:26:37;30.58;;;15.50;;
21239;SDS011;10778;48.962;9.018;2023-03-01T00:29:03;25.05;;;13.52;;
21239;SDS011;10778;48.962;9.018;2023-03-01T00:31:30;22.55;;;13.20;;
21239;SDS011;10778;48.962;9.018;2023-03-01T00:33:59;24.50;;;13.50;;
21239;SDS011;10778;48.962;9.018;2023-03-01T00:36:31;28.48;;;15.15;;
21239;SDS011;10778;48.962;9.018;2023-03-01T00:38:59;24.52;;;14.23;;
21239;SDS011;10778;48.962;9.018;2023-03-01T00:41:26;24.30;;;13.48;;
21239;SDS011;10778;48.962;9.018;2023-03-01T00:43:52;21.13;;;13.32;;
21239;SDS011;10778;48.962;9.018;2023-03-01T00:46:20;23.50;;;13.30;;
21239;SDS011;10778;48.962;9.018;2023-03-01T00:48:48;23.05;;;13.75;;
21239;SDS011;10778;48.962;9.018;2023-03-01T00:51:16;23.98;;;13.40;;
21239;SDS011;10778;48.962;9.018;2023-03-01T00:53:44;24.88;;;14.00;;
21239;SDS011;10778;48.962;9.018;2023-03-01T00:56:12;21.05;;;13.27;;
21239;SDS011;10778;48.962;9.018;2023-03-01T00:58:39;21.52;;;12.88;;
21239;SDS011;10778;48.962;9.018;2023-03-01T01:01:15;21.70;;;12.48;;
21239;SDS011;10778;48.962;9.018;2023-03-01T01:03:44;21.98;;;13.40;;
21239;SDS011;10778;48.962;9.018;2023-03-01T01:06:18;21.55;;;12.98;;
21239;SDS011;10778;48.962;9.018;2023-03-01T01:08:46;21.10;;;12.60;;
21239;SDS011;10778;48.962;9.018;2023-03-01T01:11:12;21.95;;;13.00;;
21239;SDS011;10778;48.962;9.018;2023-03-01T01:13:39;21.60;;;13.18;;
21239;SDS011;10778;48.962;9.018;2023-03-01T01:16:07;21.52;;;12.98;;
21239;SDS011;10778;48.962;9.018;2023-03-01T01:18:33;25.77;;;13.38;;
21239;SDS011;10778;48.962;9.018;2023-03-01T01:21:07;23.40;;;14.20;;
21239;SDS011;10778;48.962;9.018;2023-03-01T01:23:34;21.42;;;13.30;;
21239;SDS011;10778;48.962;9.018;2023-03-01T01:26:08;25.38;;;13.68;;
21239;SDS011;10778;48.962;9.018;2023-03-01T01:28:36;24.50;;;12.88;;
21239;SDS011;10778;48.962;9.018;2023-03-01T01:31:03;22.23;;;12.55;;
21239;SDS011;10778;48.962;9.018;2023-03-01T01:33:30;22.92;;;13.13;;
21239;SDS011;10778;48.962;9.018;2023-03-01T01:35:56;19.25;;;12.75;;
21239;SDS011;10778;48.962;9.018;2023-03-01T01:38:22;20.27;;;12.75;;
21239;SDS011;10778;48.962;9.018;2023-03-01T01:40:49;19.70;;;12.68;;
21239;SDS011;10778;48.962;9.018;2023-03-01T01:43:26;21.60;;;12.60;;
21239;SDS011;10778;48.962;9.018;2023-03-01T01:46:04;22.23;;;12.93;;
21239;SDS011;10778;48.962;9.018;2023-03-01T01:48:57;21.50;;;12.95;;
21239;SDS011;10778;48.962;9.018;2023-03-01T01:51:28;21.75;;;12.80;;
21239;SDS011;10778;48.962;9.018;2023-03-01T01:54:12;23.48;;;13.52;;
21239;SDS011;10778;48.962;9.018;2023-03-01T01:56:52;20.20;;;12.55;;
21239;SDS011;10778;48.962;9.018;2023-03-01T01:59:23;22.27;;;13.10;;
21239;SDS011;10778;48.962;9.018;2023-03-01T02:01:54;22.42;;;13.02;;
21239;SDS011;10778;48.962;9.018;2023-03-01T02:04:20;22.67;;;13.18;;
21239;SDS011;10778;48.962;9.018;2023-03-01T02:07:21;23.42;;;13.50;;
21239;SDS011;10778;48.962;9.018;2023-03-01T02:09:45;22.60;;;13.70;;
21239;SDS011;10778;48.962;9.018;2023-03-01T02:12:17;22.65;;;14.10;;
21239;SDS011;10778;48.962;9.018;2023-03-01T02:14:46;21.15;;;13.10;;
21239;SDS011;10778;48.962;9.018;2023-03-01T02:17:12;23.20;;;13.13;;
21239;SDS011;10778;48.962;9.018;2023-03-01T02:25:02;20.88;;;12.95;;
21239;SDS011;10778;48.962;9.018;2023-03-01T02:30:43;24.00;;;12.82;;
21239;SDS011;10778;48.962;9.018;2023-03-01T02:33:31;23.58;;;13.55;;
21239;SDS011;10778;48.962;9.018;2023-03-01T02:36:00;24.60;;;13.30;;
21239;SDS011;10778;48.962;9.018;2023-03-01T02:38:30;22.60;;;13.45;;
21239;SDS011;10778;48.962;9.018;2023-03-01T02:40:57;21.95;;;13.05;;
21239;SDS011;10778;48.962;9.018;2023-03-01T02:43:26;22.08;;;13.48;;
21239;SDS011;10778;48.962;9.018;2023-03-01T02:46:02;24.65;;;14.02;;
21239;SDS011;10778;48.962;9.018;2023-03-01T02:48:50;22.92;;;13.75;;
21239;SDS011;10778;48.962;9.018;2023-03-01T02:56:49;23.00;;;13.20;;
21239;SDS011;10778;48.962;9.018;2023-03-01T02:59:22;24.35;;;14.15;;
21239;SDS011;10778;48.962;9.018;2023-03-01T03:01:53;22.55;;;13.73;;
21239;SDS011;10778;48.962;9.018;2023-03-01T03:04:19;25.70;;;13.80;;
21239;SDS011;10778;48.962;9.018;2023-03-01T03:06:49;25.67;;;15.13;;
21239;SDS011;10778;48.962;9.018;2023-03-01T03:09:16;24.48;;;14.00;;
21239;SDS011;10778;48.962;9.018;2023-03-01T03:11:45;23.27;;;14.18;;
21239;SDS011;10778;48.962;9.018;2023-03-01T03:14:12;24.75;;;14.05;;
21239;SDS011;10778;48.962;9.018;2023-03-01T03:16:47;22.70;;;13.63;;
21239;SDS011;10778;48.962;9.018;2023-03-01T03:19:15;21.70;;;13.52;;
21239;SDS011;10778;48.962;9.018;2023-03-01T03:21:42;24.85;;;13.88;;
21239;SDS011;10778;48.962;9.018;2023-03-01T03:24:09;21.60;;;13.52;;
21239;SDS011;10778;48.962;9.018;2023-03-01T03:26:35;25.85;;;14.80;;
21239;SDS011;10778;48.962;9.018;2023-03-01T03:29:01;21.92;;;13.30;;
21239;SDS011;10778;48.962;9.018;2023-03-01T03:31:27;21.92;;;13.60;;
21239;SDS011;10778;48.962;9.018;2023-03-01T03:33:53;20.75;;;13.10;;
21239;SDS011;10778;48.962;9.018;2023-03-01T03:36:21;23.20;;;13.10;;
21239;SDS011;10778;48.962;9.018;2023-03-01T03:38:49;22.40;;;13.07;;
21239;SDS011;10778;48.962;9.018;2023-03-01T03:41:16;21.88;;;13.75;;
21239;SDS011;10778;48.962;9.018;2023-03-01T03:43:42;24.77;;;13.73;;
21239;SDS011;10778;48.962;9.018;2023-03-01T03:46:09;23.13;;;13.75;;
21239;SDS011;10778;48.962;9.018;2023-03-01T03:48:38;25.63;;;13.98;;
21239;SDS011;10778;48.962;9.018;2023-03-01T03:51:06;22.95;;;14.10;;
21239;SDS011;10778;48.962;9.018;2023-03-01T03:53:35;25.50;;;15.35;;
21239;SDS011;10778;48.962;9.018;2023-03-01T03:56:01;27.25;;;15.48;;
21239;SDS011;10778;48.962;9.018;2023-03-01T03:58:27;25.88;;;15.20;;
21239;SDS011;10778;48.962;9.018;2023-03-01T04:00:54;26.17;;;15.27;;
21239;SDS011;10778;48.962;9.018;2023-03-01T04:03:23;25.30;;;14.80;;
21239;SDS011;10778;48.962;9.018;2023-03-01T04:05:51;22.60;;;14.48;;
21239;SDS011;10778;48.962;9.018;2023-03-01T04:08:22;23.50;;;14.90;;
21239;SDS011;10778;48.962;9.018;2023-03-01T04:10:50;23.60;;;14.60;;
21239;SDS011;10778;48.962;9.018;2023-03-01T04:13:19;24.30;;;14.52;;
21239;SDS011;10778;48.962;9.018;2023-03-01T04:15:53;22.30;;;14.40;;
21239;SDS011;10778;48.962;9.018;2023-03-01T04:18:21;23.52;;;14.45;;
21239;SDS011;10778;48.962;9.018;2023-03-01T04:20:48;23.33;;;14.52;;
21239;SDS011;10778;48.962;9.018;2023-03-01T04:23:18;25.08;;;14.95;;
21239;SDS011;10778;48.962;9.018;2023-03-01T04:25:50;25.23;;;15.52;;
21239;SDS011;10778;48.962;9.018;2023-03-01T04:28:23;25.98;;;15.27;;
21239;SDS011;10778;48.962;9.018;2023-03-01T04:30:51;24.50;;;15.18;;
21239;SDS011;10778;48.962;9.018;2023-03-01T04:33:18;25.27;;;15.05;;
21239;SDS011;10778;48.962;9.018;2023-03-01T04:35:44;27.00;;;15.43;;
21239;SDS011;10778;48.962;9.018;2023-03-01T04:38:11;26.45;;;14.98;;
21239;SDS011;10778;48.962;9.018;2023-03-01T04:40:37;23.65;;;14.15;;
21239;SDS011;10778;48.962;9.018;2023-03-01T04:43:03;26.50;;;14.30;;
21239;SDS011;10778;48.962;9.018;2023-03-01T04:45:31;23.95;;;14.77;;
21239;SDS011;10778;48.962;9.018;2023-03-01T04:47:58;23.73;;;13.68;;
21239;SDS011;10778;48.962;9.018;2023-03-01T04:50:24;24.85;;;15.02;;
21239;SDS011;10778;48.962;9.018;2023-03-01T04:52:51;29.58;;;15.95;;
21239;SDS011;10778;48.962;9.018;2023-03-01T04:55:17;22.20;;;14.40;;
21239;SDS011;10778;48.962;9.018;2023-03-01T04:57:44;23.48;;;14.10;;
21239;SDS011;10778;48.962;9.018;2023-03-01T05:00:10;23.50;;;13.57;;
21239;SDS011;10778;48.962;9.018;2023-03-01T05:02:48;24.98;;;14.65;;
21239;SDS011;10778;48.962;9.018;2023-03-01T05:05:19;25.00;;;15.10;;
21239;SDS011;10778;48.962;9.018;2023-03-01T05:07:47;25.58;;;15.48;;
21239;SDS011;10778;48.962;9.018;2023-03-01T05:10:13;23.58;;;14.00;;
21239;SDS011;10778;48.962;9.018;2023-03-01T05:12:39;25.88;;;14.18;;
21239;SDS011;10778;48.962;9.018;2023-03-01T05:15:05;24.85;;;14.25;;
21239;SDS011;10778;48.962;9.018;2023-03-01T05:17:33;27.30;;;14.73;;
21239;SDS011;10778;48.962;9.018;2023-03-01T05:19:59;25.45;;;15.40;;
21239;SDS011;10778;48.962;9.018;2023-03-01T05:22:26;26.50;;;14.82;;
21239;SDS011;10778;48.962;9.018;2023-03-01T05:24:53;28.33;;;16.63;;
21239;SDS011;10778;48.962;9.018;2023-03-01T05:27:19;28.77;;;16.73;;
21239;SDS011;10778;48.962;9.018;2023-03-01T05:29:47;27.63;;;15.98;;
21239;SDS011;10778;48.962;9.018;2023-03-01T05:32:14;29.70;;;17.52;;
21239;SDS011;10778;48.962;9.018;2023-03-01T05:34:41;27.52;;;16.60;;
21239;SDS011;10778;48.962;9.018;2023-03-01T05:37:07;29.80;;;16.35;;
21239;SDS011;10778;48.962;9.018;2023-03-01T05:39:34;29.85;;;16.98;;
21239;SDS011;10778;48.962;9.018;2023-03-01T05:42:00;25.48;;;16.02;;
21239;SDS011;10778;48.962;9.018;2023-03-01T05:44:28;26.50;;;15.77;;
21239;SDS011;10778;48.962;9.018;2023-03-01T05:46:54;27.90;;;16.48;;
21239;SDS011;10778;48.962;9.018;2023-03-01T05:49:21;28.02;;;16.80;;
21239;SDS011;10778;48.962;9.018;2023-03-01T05:51:50;29.52;;;14.93;;
21239;SDS011;10778;48.962;9.018;2023-03-01T05:54:19;35.45;;;19.92;;
21239;SDS011;10778;48.962;9.018;2023-03-01T05:56:46;34.10;;;19.50;;
21239;SDS011;10778;48.962;9.018;2023-03-01T05:59:12;32.85;;;18.52;;
21239;SDS011;10778;48.962;9.018;2023-03-01T06:01:39;27.55;;;17.23;;
21239;SDS011;10778;48.962;9.018;2023-03-01T06:04:05;26.48;;;16.10;;
21239;SDS011;10778;48.962;9.018;2023-03-01T06:06:34;28.13;;;16.35;;
21239;SDS011;10778;48.962;9.018;2023-03-01T06:09:03;26.65;;;16.48;;
21239;SDS011;10778;48.962;9.018;2023-03-01T06:11:35;24.80;;;16.05;;
21239;SDS011;10778;48.962;9.018;2023-03-01T06:14:02;28.35;;;16.05;;
21239;SDS011;10778;48.962;9.018;2023-03-01T06:16:29;26.80;;;16.25;;
21239;SDS011;10778;48.962;9.018;2023-03-01T06:18:55;25.63;;;15.88;;
21239;SDS011;10778;48.962;9.018;2023-03-01T06:21:21;23.92;;;16.02;;
21239;SDS011;10778;48.962;9.018;2023-03-01T06:23:47;22.80;;;15.27;;
21239;SDS011;10778;48.962;9.018;2023-03-01T06:26:13;26.88;;;16.17;;
21239;SDS011;10778;48.962;9.018;2023-03-01T06:28:39;24.65;;;16.17;;
21239;SDS011;10778;48.962;9.018;2023-03-01T06:31:05;27.50;;;16.45;;
21239;SDS011;10778;48.962;9.018;2023-03-01T06:33:34;27.52;;;17.30;;
21239;SDS011;10778;48.962;9.018;2023-03-01T06:36:01;29.83;;;17.52;;
21239;SDS011;10778;48.962;9.018;2023-03-01T06:38:27;27.23;;;16.83;;
21239;SDS011;10778;48.962;9.018;2023-03-01T06:40:54;29.25;;;17.73;;
21239;SDS011;10778;48.962;9.018;2023-03-01T06:43:22;30.45;;;18.15;;
21239;SDS011;10778;48.962;9.018;2023-03-01T06:45:49;33.17;;;18.70;;
21239;SDS011;10778;48.962;9.018;2023-03-01T06:48:15;31.95;;;18.60;;
21239;SDS011;10778;48.962;9.018;2023-03-01T06:50:41;31.75;;;18.27;;
21239;SDS011;10778;48.962;9.018;2023-03-01T06:53:07;30.08;;;16.95;;
21239;SDS011;10778;48.962;9.018;2023-03-01T06:55:33;30.05;;;17.45;;
21239;SDS011;10778;48.962;9.018;2023-03-01T06:57:59;29.88;;;17.88;;
21239;SDS011;10778;48.962;9.018;2023-03-01T07:00:27;31.77;;;18.13;;
21239;SDS011;10778;48.962;9.018;2023-03-01T07:02:53;29.40;;;17.13;;
21239;SDS011;10778;48.962;9.018;2023-03-01T07:05:19;31.08;;;17.77;;
21239;SDS011;10778;48.962;9.018;2023-03-01T07:07:46;28.00;;;16.63;;
21239;SDS011;10778;48.962;9.018;2023-03-01T07:10:12;27.13;;;16.77;;
21239;SDS011;10778;48.962;9.018;2023-03-01T07:12:38;28.65;;;16.75;;
21239;SDS011;10778;48.962;9.018;2023-03-01T07:15:04;28.02;;;16.58;;
21239;SDS011;10778;48.962;9.018;2023-03-01T07:17:31;26.33;;;16.75;;
21239;SDS011;10778;48.962;9.018;2023-03-01T07:19:57;28.10;;;16.95;;
21239;SDS011;10778;48.962;9.018;2023-03-01T07:22:23;26.75;;;16.27;;
21239;SDS011;10778;48.962;9.018;2023-03-01T07:24:49;23.85;;;16.10;;
21239;SDS011;10778;48.962;9.018;2023-03-01T07:27:15;26.73;;;16.75;;
21239;SDS011;10778;48.962;9.018;2023-03-01T07:29:40;27.20;;;16.88;;
21239;SDS011;10778;48.962;9.018;2023-03-01T07:32:06;26.67;;;17.10;;
21239;SDS011;10778;48.962;9.018;2023-03-01T07:34:33;24.55;;;16.60;;
21239;SDS011;10778;48.962;9.018;2023-03-01T07:36:59;27.73;;;18.40;;
21239;SDS011;10778;48.962;9.018;2023-03-01T07:39:25;28.50;;;17.38;;
21239;SDS011;10778;48.962;9.018;2023-03-01T07:41:51;26.10;;;17.40;;
21239;SDS011;10778;48.962;9.018;2023-03-01T07:44:20;26.95;;;17.13;;
21239;SDS011;10778;48.962;9.018;2023-03-01T07:46:46;24.92;;;17.73;;
21239;SDS011;10778;48.962;9.018;2023-03-01T07:49:13;26.67;;;17.02;;
21239;SDS011;10778;48.962;9.018;2023-03-01T07:51:39;31.60;;;17.55;;
21239;SDS011;10778;48.962;9.018;2023-03-01T07:54:05;26.58;;;17.05;;
21239;SDS011;10778;48.962;9.018;2023-03-01T07:56:31;24.50;;;16.98;;
21239;SDS011;10778;48.962;9.018;2023-03-01T07:58:58;27.38;;;17.30;;
21239;SDS011;10778;48.962;9.018;2023-03-01T08:01:25;25.90;;;16.63;;
21239;SDS011;10778;48.962;9.018;2023-03-01T08:03:51;24.65;;;16.45;;
21239;SDS011;10778;48.962;9.018;2023-03-01T08:06:17;25.27;;;17.05;;
21239;SDS011;10778;48.962;9.018;2023-03-01T08:08:44;25.70;;;16.92;;
21239;SDS011;10778;48.962;9.018;2023-03-01T08:11:11;26.73;;;17.83;;
21239;SDS011;10778;48.962;9.018;2023-03-01T08:13:38;25.73;;;17.15;;
21239;SDS011;10778;48.962;9.018;2023-03-01T08:16:05;27.73;;;16.83;;
21239;SDS011;10778;48.962;9.018;2023-03-01T08:18:33;26.42;;;16.15;;
21239;SDS011;10778;48.962;9.018;2023-03-01T08:21:03;24.02;;;17.17;;
21239;SDS011;10778;48.962;9.018;2023-03-01T08:23:31;26.13;;;15.93;;
21239;SDS011;10778;48.962;9.018;2023-03-01T08:26:08;25.80;;;16.58;;
21239;SDS011;10778;48.962;9.018;2023-03-01T08:28:36;24.85;;;16.70;;
21239;SDS011;10778;48.962;9.018;2023-03-01T08:31:02;24.85;;;17.45;;
21239;SDS011;10778;48.962;9.018;2023-03-01T08:33:28;26.67;;;17.98;;
21239;SDS011;10778;48.962;9.018;2023-03-01T08:36:04;27.63;;;18.15;;
21239;SDS011;10778;48.962;9.018;2023-03-01T08:38:35;25.38;;;17.25;;
21239;SDS011;10778;48.962;9.018;2023-03-01T08:41:04;24.95;;;17.27;;
21239;SDS011;10778;48.962;9.018;2023-03-01T08:43:30;25.70;;;17.48;;
21239;SDS011;10778;48.962;9.018;2023-03-01T08:45:56;22.63;;;16.25;;
21239;SDS011;10778;48.962;9.018;2023-03-01T08:48:22;26.75;;;18.60;;
21239;SDS011;10778;48.962;9.018;2023-03-01T08:50:49;27.45;;;17.45;;
21239;SDS011;10778;48.962;9.018;2023-03-01T08:53:15;24.23;;;16.83;;
21239;SDS011;10778;48.962;9.018;2023-03-01T08:55:41;25.73;;;17.48;;
21239;SDS011;10778;48.962;9.018;2023-03-01T08:58:07;27.65;;;18.42;;
21239;SDS011;10778;48.962;9.018;2023-03-01T09:00:33;24.90;;;16.30;;
21239;SDS011;10778;48.962;9.018;2023-03-01T09:03:00;23.48;;;17.02;;
21239;SDS011;10778;48.962;9.018;2023-03-01T09:05:27;25.58;;;17.40;;
21239;SDS011;10778;48.962;9.018;2023-03-01T09:07:53;24.88;;;17.98;;
21239;SDS011;10778;48.962;9.018;2023-03-01T09:10:19;26.67;;;17.77;;
21239;SDS011;10778;48.962;9.018;2023-03-01T09:12:45;24.42;;;17.70;;
21239;SDS011;10778;48.962;9.018;2023-03-01T09:15:11;26.98;;;18.23;;
21239;SDS011;10778;48.962;9.018;2023-03-01T09:17:37;24.88;;;17.83;;
21239;SDS011;10778;48.962;9.018;2023-03-01T09:20:03;24.95;;;17.42;;
21239;SDS011;10778;48.962;9.018;2023-03-01T09:22:33;24.45;;;17.08;;
21239;SDS011;10778;48.962;9.018;2023-03-01T09:25:00;24.73;;;17.63;;
21239;SDS011;10778;48.962;9.018;2023-03-01T09:27:26;27.27;;;17.15;;
21239;SDS011;10778;48.962;9.018;2023-03-01T09:29:52;25.30;;;17.95;;
21239;SDS011;10778;48.962;9.018;2023-03-01T09:32:18;27.20;;;19.30;;
21239;SDS011;10778;48.962;9.018;2023-03-01T09:34:44;24.40;;;17.85;;
21239;SDS011;10778;48.962;9.018;2023-03-01T09:37:39;24.35;;;17.45;;
21239;SDS011;10778;48.962;9.018;2023-03-01T09:40:11;22.88;;;17.33;;
21239;SDS011;10778;48.962;9.018;2023-03-01T09:42:58;24.75;;;18.48;;
21239;SDS011;10778;48.962;9.018;2023-03-01T09:45:35;23.05;;;17.20;;
21239;SDS011;10778;48.962;9.018;2023-03-01T09:48:09;25.08;;;17.67;;
21239;SDS011;10778;48.962;9.018;2023-03-01T09:50:43;23.85;;;17.15;;
21239;SDS011;10778;48.962;9.018;2023-03-01T09:55:45;25.00;;;17.80;;
21239;SDS011;10778;48.962;9.018;2023-03-01T10:01:20;25.25;;;18.00;;
21239;SDS011;10778;48.962;9.018;2023-03-01T10:06:24;24.48;;;17.08;;
21239;SDS011;10778;48.962;9.018;2023-03-01T10:08:53;25.73;;;18.02;;
21239;SDS011;10778;48.962;9.018;2023-03-01T10:14:48;24.45;;;17.48;;
21239;SDS011;10778;48.962;9.018;2023-03-01T10:16:51;22.73;;;17.42;;
21239;SDS011;10778;48.962;9.018;2023-03-01T10:22:03;27.02;;;18.45;;
21239;SDS011;10778;48.962;9.018;2023-03-01T10:24:36;23.70;;;17.15;;
21239;SDS011;10778;48.962;9.018;2023-03-01T10:27:12;26.15;;;18.25;;
21239;SDS011;10778;48.962;9.018;2023-03-01T10:29:55;25.48;;;17.17;;
21239;SDS011;10778;48.962;9.018;2023-03-01T10:32:42;26.35;;;18.40;;
21239;SDS011;10778;48.962;9.018;2023-03-01T10:40:29;25.85;;;17.23;;
21239;SDS011;10778;48.962;9.018;2023-03-01T10:43:01;22.13;;;17.58;;
21239;SDS011;10778;48.962;9.018;2023-03-01T10:50:51;26.10;;;18.60;;
21239;SDS011;10778;48.962;9.018;2023-03-01T10:53:40;26.08;;;18.05;;
21239;SDS011;10778;48.962;9.018;2023-03-01T10:56:11;25.33;;;18.13;;
21239;SDS011;10778;48.962;9.018;2023-03-01T10:58:40;23.55;;;18.02;;
21239;SDS011;10778;48.962;9.018;2023-03-01T11:06:33;27.85;;;17.75;;
21239;SDS011;10778;48.962;9.018;2023-03-01T11:09:33;23.30;;;17.92;;
21239;SDS011;10778;48.962;9.018;2023-03-01T11:12:00;25.17;;;18.48;;
21239;SDS011;10778;48.962;9.018;2023-03-01T11:14:27;27.30;;;18.48;;
21239;SDS011;10778;48.962;9.018;2023-03-01T11:17:03;27.42;;;18.20;;
21239;SDS011;10778;48.962;9.018;2023-03-01T11:19:31;24.60;;;17.77;;
21239;SDS011;10778;48.962;9.018;2023-03-01T11:24:42;23.67;;;17.40;;
21239;SDS011;10778;48.962;9.018;2023-03-01T11:29:44;25.42;;;17.77;;
21239;SDS011;10778;48.962;9.018;2023-03-01T11:32:16;25.90;;;18.52;;
21239;SDS011;10778;48.962;9.018;2023-03-01T11:34:47;24.88;;;18.45;;
21239;SDS011;10778;48.962;9.018;2023-03-01T11:37:30;22.40;;;17.13;;
21239;SDS011;10778;48.962;9.018;2023-03-01T11:42:56;26.23;;;17.98;;
21239;SDS011;10778;48.962;9.018;2023-03-01T11:48:24;26.38;;;17.70;;
21239;SDS011;10778;48.962;9.018;2023-03-01T11:51:05;25.00;;;17.83;;
21239;SDS011;10778;48.962;9.018;2023-03-01T11:53:47;27.75;;;18.73;;
21239;SDS011;10778;48.962;9.018;2023-03-01T11:59:09;25.73;;;17.42;;
21239;SDS011;10778;48.962;9.018;2023-03-01T12:07:31;24.17;;;18.10;;
21239;SDS011;10778;48.962;9.018;2023-03-01T12:26:40;25.63;;;17.95;;
21239;SDS011;10778;48.962;9.018;2023-03-01T12:29:26;22.65;;;17.52;;
21239;SDS011;10778;48.962;9.018;2023-03-01T12:32:07;23.35;;;18.20;;
21239;SDS011;10778;48.962;9.018;2023-03-01T12:37:25;24.90;;;17.98;;
21239;SDS011;10778;48.962;9.018;2023-03-01T12:50:42;26.48;;;18.35;;
21239;SDS011;10778;48.962;9.018;2023-03-01T12:53:22;23.98;;;17.77;;
21239;SDS011;10778;48.962;9.018;2023-03-01T12:55:51;26.40;;;18.05;;
21239;SDS011;10778;48.962;9.018;2023-03-01T13:03:31;25.52;;;19.08;;
21239;SDS011;10778;48.962;9.018;2023-03-01T13:06:21;27.02;;;19.23;;
21239;SDS011;10778;48.962;9.018;2023-03-01T13:11:29;23.90;;;18.10;;
21239;SDS011;10778;48.962;9.018;2023-03-01T13:16:57;26.52;;;18.73;;
21239;SDS011;10778;48.962;9.018;2023-03-01T13:19:24;28.25;;;18.80;;
21239;SDS011;10778;48.962;9.018;2023-03-01T13:21:53;25.65;;;18.23;;
21239;SDS011;10778;48.962;9.018;2023-03-01T13:29:46;26.42;;;18.73;;
21239;SDS011;10778;48.962;9.018;2023-03-01T13:34:48;26.15;;;18.48;;
21239;SDS011;10778;48.962;9.018;2023-03-01T13:37:20;27.85;;;19.10;;
21239;SDS011;10778;48.962;9.018;2023-03-01T13:39:47;24.17;;;17.70;;
21239;SDS011;10778;48.962;9.018;2023-03-01T13:47:43;26.42;;;17.42;;
21239;SDS011;10778;48.962;9.018;2023-03-01T13:50:16;26.67;;;18.27;;
21239;SDS011;10778;48.962;9.018;2023-03-01T13:52:50;23.50;;;18.38;;
21239;SDS011;10778;48.962;9.018;2023-03-01T13:55:23;22.58;;;17.30;;
21239;SDS011;10778;48.962;9.018;2023-03-01T13:57:55;22.83;;;16.95;;
21239;SDS011;10778;48.962;9.018;2023-03-01T14:00:27;23.65;;;17.42;;
21239;SDS011;10778;48.962;9.018;2023-03-01T14:05:42;25.35;;;18.30;;
21239;SDS011;10778;48.962;9.018;2023-03-01T14:08:24;24.05;;;17.77;;
21239;SDS011;10778;48.962;9.018;2023-03-01T14:16:54;24.90;;;18.00;;
21239;SDS011;10778;48.962;9.018;2023-03-01T14:19:34;23.58;;;17.48;;
21239;SDS011;10778;48.962;9.018;2023-03-01T14:24:55;26.80;;;18.20;;
21239;SDS011;10778;48.962;9.018;2023-03-01T14:27:25;24.55;;;18.10;;
21239;SDS011;10778;48.962;9.018;2023-03-01T14:29:56;24.48;;;18.45;;
21239;SDS011;10778;48.962;9.018;2023-03-01T14:32:25;26.98;;;18.73;;
21239;SDS011;10778;48.962;9.018;2023-03-01T14:34:53;26.23;;;18.50;;
21239;SDS011;10778;48.962;9.018;2023-03-01T14:39:55;24.30;;;17.85;;
21239;SDS011;10778;48.962;9.018;2023-03-01T14:42:23;22.58;;;17.30;;
21239;SDS011;10778;48.962;9.018;2023-03-01T14:44:53;24.30;;;18.15;;
21239;SDS011;10778;48.962;9.018;2023-03-01T14:47:24;24.80;;;17.67;;
21239;SDS011;10778;48.962;9.018;2023-03-01T14:49:57;24.15;;;17.80;;
21239;SDS011;10778;48.962;9.018;2023-03-01T14:52:37;23.00;;;17.30;;
21239;SDS011;10778;48.962;9.018;2023-03-01T14:55:07;23.75;;;17.15;;
21239;SDS011;10778;48.962;9.018;2023-03-01T14:57:42;25.42;;;17.67;;
21239;SDS011;10778;48.962;9.018;2023-03-01T15:00:10;25.10;;;18.17;;
21239;SDS011;10778;48.962;9.018;2023-03-01T15:02:50;23.75;;;17.33;;
21239;SDS011;10778;48.962;9.018;2023-03-01T15:05:21;23.65;;;17.05;;
21239;SDS011;10778;48.962;9.018;2023-03-01T15:07:53;24.92;;;17.35;;
21239;SDS011;10778;48.962;9.018;2023-03-01T15:10:21;24.20;;;17.15;;
21239;SDS011;10778;48.962;9.018;2023-03-01T15:12:49;27.05;;;17.88;;
21239;SDS011;10778;48.962;9.018;2023-03-01T15:17:54;27.08;;;19.63;;
21239;SDS011;10778;48.962;9.018;2023-03-01T15:20:24;24.25;;;17.88;;
21239;SDS011;10778;48.962;9.018;2023-03-01T15:22:53;26.02;;;18.40;;
21239;SDS011;10778;48.962;9.018;2023-03-01T15:25:22;24.75;;;17.98;;
21239;SDS011;10778;48.962;9.018;2023-03-01T15:27:50;26.67;;;17.63;;
21239;SDS011;10778;48.962;9.018;2023-03-01T15:30:18;68.07;;;40.20;;
21239;SDS011;10778;48.962;9.018;2023-03-01T15:32:48;25.80;;;18.13;;
21239;SDS011;10778;48.962;9.018;2023-03-01T15:38:00;27.52;;;18.65;;
21239;SDS011;10778;48.962;9.018;2023-03-01T15:40:27;25.73;;;18.17;;
21239;SDS011;10778;48.962;9.018;2023-03-01T15:43:01;30.25;;;20.90;;
21239;SDS011;10778;48.962;9.018;2023-03-01T15:45:32;25.70;;;17.95;;
21239;SDS011;10778;48.962;9.018;2023-03-01T15:48:04;24.25;;;17.25;;
21239;SDS011;10778;48.962;9.018;2023-03-01T15:50:40;26.95;;;16.75;;
21239;SDS011;10778;48.962;9.018;2023-03-01T15:53:12;24.58;;;17.20;;
21239;SDS011;10778;48.962;9.018;2023-03-01T15:55:40;22.90;;;16.58;;
21239;SDS011;10778;48.962;9.018;2023-03-01T15:58:14;24.35;;;16.55;;
21239;SDS011;10778;48.962;9.018;2023-03-01T16:00:44;23.85;;;16.63;;
21239;SDS011;10778;48.962;9.018;2023-03-01T16:03:12;23.58;;;17.08;;
21239;SDS011;10778;48.962;9.018;2023-03-01T16:05:38;24.45;;;16.52;;
21239;SDS011;10778;48.962;9.018;2023-03-01T16:08:05;23.73;;;17.23;;
21239;SDS011;10778;48.962;9.018;2023-03-01T16:10:32;21.95;;;16.05;;
21239;SDS011;10778;48.962;9.018;2023-03-01T16:12:59;23.63;;;17.15;;
21239;SDS011;10778;48.962;9.018;2023-03-01T16:15:27;23.15;;;16.23;;
21239;SDS011;10778;48.962;9.018;2023-03-01T16:17:55;22.05;;;16.23;;
21239;SDS011;10778;48.962;9.018;2023-03-01T16:20:24;25.20;;;16.70;;
21239;SDS011;10778;48.962;9.018;2023-03-01T16:22:50;27.08;;;17.40;;
21239;SDS011;10778;48.962;9.018;2023-03-01T16:25:17;23.75;;;16.77;;
21239;SDS011;10778;48.962;9.018;2023-03-01T16:27:46;25.85;;;16.48;;
21239;SDS011;10778;48.962;9.018;2023-03-01T16:30:15;22.77;;;16.50;;
21239;SDS011;10778;48.962;9.018;2023-03-01T16:32:44;23.33;;;15.93;;
21239;SDS011;10778;48.962;9.018;2023-03-01T16:35:12;24.90;;;16.90;;
21239;SDS011;10778;48.962;9.018;2023-03-01T16:37:41;27.83;;;17.23;;
21239;SDS011;10778;48.962;9.018;2023-03-01T16:40:16;22.08;;;16.52;;
21239;SDS011;10778;48.962;9.018;2023-03-01T16:42:43;25.52;;;16.77;;
21239;SDS011;10778;48.962;9.018;2023-03-01T16:45:09;23.55;;;16.40;;
21239;SDS011;10778;48.962;9.018;2023-03-01T16:47:35;24.08;;;16.80;;
21239;SDS011;10778;48.962;9.018;2023-03-01T16:50:01;26.05;;;15.80;;
21239;SDS011;10778;48.962;9.018;2023-03-01T16:52:28;28.35;;;16.67;;